INFORMACIÓN METAR y TAF
METAR FOR EFIV
ADDS - METARS form results

(1005 UTC 25 August 2019)
Data provider http://aviationweather.gov/metar/data/
 
METAR text: EFIV 250950Z AUTO 14006KT 110V190 9999 SCT020 SCT060 BKN089 11/08 Q1019
Conditions at: EFIV (IVALO , FI) observed 0950 UTC 25 August 2019
Temperature: 11.0°C (52°F)
Dewpoint: 8.0°C (46°F) [RH = 82%]
Pressure (altimeter): 30.09 inches Hg (1019.0 mb)
Winds: from the SE (140 degrees) at 7 MPH (6 knots; 3.1 m/s)
Visibility: 6 or more miles (10+ km)
Ceiling: 8900 feet AGL
Clouds: scattered clouds at 2000 feet AGL
scattered clouds at 6000 feet AGL
broken clouds at 8900 feet AGL
Weather: no significant weather observed at this time

METAR text: EFIV 250920Z AUTO 13005KT 100V160 CAVOK 09/07 Q1020
Conditions at: EFIV (IVALO , FI) observed 0920 UTC 25 August 2019
Temperature: 9.0°C (48°F)
Dewpoint: 7.0°C (45°F) [RH = 87%]
Pressure (altimeter): 30.12 inches Hg (1020.0 mb)
Winds: from the SE (130 degrees) at 6 MPH (5 knots; 2.6 m/s)
Visibility: 6 or more miles (10+ km)
Ceiling: ceiling and visibility are OK
Clouds: unknown
Weather: no significant weather observed at this time

Forecast for: AMD
Text: TAF AMD EFIV 250531Z 2505/2506 12005KT 9999 -SHRA FEW005 FEW020CB BKN030
Forecast period: 0500 to 0600 UTC 25 August 2019
Forecast type: FROM: standard forecast or significant change
Winds: from the ESE (120 degrees) at 6 MPH (5 knots; 2.6 m/s)
Visibility: 6 or more miles 10+ km)
Ceiling: 3000 feet AGL
Clouds: few clouds at 500 feet AGL
few clouds at 2000 feet AGL
broken clouds at 3000 feet AGL
Weather: -SHRA  (light rain showers)

 MAPA DE AEROPUERTO

 INFORMACIÓN DE PISTA
Pista 04 Longitud 8199 ft Ancho 148 ft
Elevación 480 ft Umbral desplazado 0 ft Rumbo de pista 47
Pista 22 Longitud 8199 ft Ancho 148 ft
Elevación 463 ft Umbral desplazado 0 ft Rumbo de pista 227
Pista 08 Longitud 2625 ft Ancho 148 ft
Elevación 475 ft Umbral desplazado 0 ft Rumbo de pista 92
Pista 26 Longitud 2625 ft Ancho 148 ft
Elevación 468 ft Umbral desplazado 0 ft Rumbo de pista 272

 FRECUANCIAS DEL AEROPUERTO
Tipo ATIS Nombre ATIS Frecuencia 123.2 MHZ
Tipo TWR Nombre TWR Frecuencia 118 MHZ

 RADIO AYUDAS DEL AEROPUERTO
Tipo NDB Nombre Akujarvi Frecuencia 432 KHZ



Powered by Virtual Airlines Manager [v2.6.2]